createdAt,value
2022-10-09T00:00:29.503Z,0.00
2022-10-09T00:01:32.542Z,0.17
2022-10-09T00:02:35.358Z,1.00
2022-10-09T00:03:38.151Z,0.57
2022-10-09T00:04:41.056Z,0.33
2022-10-09T00:05:44.188Z,1.00
2022-10-09T00:06:47.293Z,0.33
2022-10-09T00:07:50.317Z,0.00
2022-10-09T00:08:53.078Z,0.00
2022-10-09T00:09:56.165Z,0.00
2022-10-09T00:10:59.147Z,0.00
2022-10-09T00:12:02.163Z,0.43
2022-10-09T00:13:05.223Z,0.67
2022-10-09T00:14:07.973Z,0.00
2022-10-09T00:15:10.953Z,0.29
2022-10-09T00:16:13.613Z,0.67
2022-10-09T00:17:16.408Z,0.00
2022-10-09T00:18:19.511Z,0.00
2022-10-09T00:19:22.372Z,0.43
2022-10-09T00:20:25.222Z,1.00
2022-10-09T00:21:28.129Z,0.14
2022-10-09T00:22:30.917Z,0.00
2022-10-09T00:23:34.084Z,0.00
2022-10-09T00:24:36.871Z,0.00
2022-10-09T00:25:39.656Z,0.00
2022-10-09T00:26:42.525Z,0.33
2022-10-09T00:27:45.253Z,1.33
2022-10-09T00:28:48.037Z,1.67
2022-10-09T00:29:50.906Z,1.00
2022-10-09T00:30:53.835Z,0.67
2022-10-09T00:31:56.807Z,0.00
2022-10-09T00:32:59.666Z,0.00
2022-10-09T00:34:02.594Z,0.00
2022-10-09T00:35:05.563Z,0.43
2022-10-09T00:36:08.329Z,0.67
2022-10-09T00:37:11.433Z,0.00
2022-10-09T00:38:14.414Z,0.00
2022-10-09T00:39:17.373Z,0.67
2022-10-09T00:40:20.058Z,0.00
2022-10-09T00:41:22.934Z,0.00
2022-10-09T00:42:25.830Z,1.29
2022-10-09T00:43:28.730Z,1.83
2022-10-09T00:44:31.945Z,0.57
2022-10-09T00:45:34.995Z,0.00
2022-10-09T00:46:37.951Z,0.00
2022-10-09T00:47:40.843Z,0.00
2022-10-09T00:48:43.745Z,0.00
2022-10-09T00:49:46.625Z,0.00
2022-10-09T00:50:49.664Z,0.86
2022-10-09T00:51:52.365Z,1.33
2022-10-09T00:52:55.381Z,0.00
2022-10-09T00:53:58.052Z,0.00
2022-10-09T00:55:01.243Z,0.33
2022-10-09T00:56:04.427Z,0.57
2022-10-09T00:57:07.386Z,0.29
2022-10-09T00:58:10.213Z,0.67
2022-10-09T00:59:12.961Z,0.33
2022-10-09T01:00:15.854Z,1.00
2022-10-09T01:01:18.947Z,0.71
2022-10-09T01:02:21.918Z,0.67
2022-10-09T01:03:24.860Z,0.00
2022-10-09T01:04:27.712Z,0.00
2022-10-09T01:05:30.621Z,0.00
2022-10-09T01:06:33.819Z,0.00
2022-10-09T01:07:36.814Z,0.43
2022-10-09T01:08:39.684Z,1.00
2022-10-09T01:09:42.762Z,1.00
2022-10-09T01:10:45.657Z,0.57
2022-10-09T01:11:48.701Z,0.00
2022-10-09T01:12:52.094Z,0.00
2022-10-09T01:13:55.104Z,0.14
2022-10-09T01:14:58.100Z,0.43
2022-10-09T01:16:01.254Z,0.14
2022-10-09T01:17:04.081Z,0.43
2022-10-09T01:18:06.753Z,0.17
2022-10-09T01:19:09.746Z,0.00
2022-10-09T01:20:12.609Z,0.00
2022-10-09T01:21:15.569Z,0.00
2022-10-09T01:22:18.289Z,0.00
2022-10-09T01:23:21.197Z,0.00
2022-10-09T01:24:23.999Z,0.33
2022-10-09T01:25:26.878Z,0.57
2022-10-09T01:26:29.772Z,0.00
2022-10-09T01:27:32.572Z,0.00
2022-10-09T01:28:35.616Z,0.00
2022-10-09T01:29:38.791Z,0.33
2022-10-09T01:30:41.768Z,0.57
2022-10-09T01:31:44.799Z,0.43
2022-10-09T01:32:48.144Z,0.00
2022-10-09T01:33:51.376Z,0.29
2022-10-09T01:34:54.336Z,0.00
2022-10-09T01:35:57.187Z,0.00
2022-10-09T01:36:59.920Z,1.00
2022-10-09T01:38:02.834Z,1.00
2022-10-09T01:39:05.872Z,1.00
2022-10-09T01:40:08.586Z,1.00
2022-10-09T01:41:11.442Z,0.67
2022-10-09T01:42:14.158Z,0.00
2022-10-09T01:43:16.890Z,0.50
2022-10-09T01:45:35.900Z,0.50
2022-10-09T01:46:38.924Z,0.00
2022-10-09T01:47:42.064Z,0.00
2022-10-09T01:48:45.091Z,0.43
2022-10-09T01:49:48.043Z,0.67
2022-10-09T01:50:50.892Z,0.33
2022-10-09T01:51:53.860Z,0.43
2022-10-09T01:52:57.029Z,0.50
2022-10-09T01:53:59.826Z,0.57
2022-10-09T01:56:10.270Z,0.00
2022-10-09T01:58:20.865Z,1.50
2022-10-09T01:59:23.641Z,1.33
2022-10-09T02:00:26.499Z,1.33
2022-10-09T02:01:29.363Z,0.00
2022-10-09T02:02:32.314Z,0.43
2022-10-09T02:03:35.397Z,0.67
2022-10-09T02:04:38.141Z,0.43
2022-10-09T02:05:41.000Z,0.50
2022-10-09T02:06:44.105Z,0.67
2022-10-09T02:07:47.364Z,2.00
2022-10-09T02:08:50.616Z,1.29
2022-10-09T02:09:53.457Z,0.57
2022-10-09T02:10:56.287Z,0.50
2022-10-09T02:11:59.386Z,1.00
2022-10-09T02:13:02.351Z,1.43
2022-10-09T02:14:05.198Z,1.33
2022-10-09T02:15:08.146Z,0.71
2022-10-09T02:16:11.012Z,1.00
2022-10-09T02:17:14.092Z,0.67
2022-10-09T02:18:16.841Z,0.00
2022-10-09T02:19:20.110Z,0.17
2022-10-09T02:20:23.062Z,0.43
2022-10-09T02:21:25.992Z,0.67
2022-10-09T02:22:28.890Z,0.00
2022-10-09T02:23:31.945Z,0.33
2022-10-09T02:24:35.247Z,0.57
2022-10-09T02:25:38.331Z,0.00
2022-10-09T02:26:41.432Z,0.43
2022-10-09T02:27:44.388Z,0.57
2022-10-09T02:28:47.373Z,0.33
2022-10-09T02:29:50.373Z,1.00
2022-10-09T02:30:53.272Z,0.00
2022-10-09T02:31:56.102Z,0.00
2022-10-09T02:32:59.297Z,0.00
2022-10-09T02:34:02.390Z,0.43
2022-10-09T02:35:05.389Z,1.00
2022-10-09T02:36:08.347Z,0.67
2022-10-09T02:37:11.183Z,0.00
2022-10-09T02:38:13.957Z,0.00
2022-10-09T02:39:17.011Z,0.33
2022-10-09T02:40:19.877Z,1.86
2022-10-09T02:41:22.726Z,2.33
2022-10-09T02:42:25.546Z,0.57
2022-10-09T02:43:28.503Z,0.00
2022-10-09T02:44:31.369Z,0.43
2022-10-09T02:45:34.498Z,1.00
2022-10-09T02:46:37.724Z,1.33
2022-10-09T02:47:41.861Z,1.14
2022-10-09T02:48:47.757Z,1.00
2022-10-09T02:49:50.878Z,0.50
2022-10-09T02:50:53.953Z,0.00
2022-10-09T02:51:56.827Z,0.00
2022-10-09T02:52:59.671Z,0.33
2022-10-09T02:54:02.572Z,0.67
2022-10-09T02:55:05.627Z,0.00
2022-10-09T02:56:08.548Z,1.00
2022-10-09T02:57:11.468Z,1.00
2022-10-09T02:58:14.189Z,1.00
2022-10-09T02:59:17.017Z,1.33
2022-10-09T03:00:19.775Z,1.17
2022-10-09T03:01:22.654Z,0.67
2022-10-09T03:02:25.670Z,0.00
2022-10-09T03:03:28.642Z,0.33
2022-10-09T03:04:31.474Z,1.14
2022-10-09T03:05:34.348Z,1.33
2022-10-09T03:06:37.612Z,0.00
2022-10-09T03:07:40.604Z,0.00
2022-10-09T03:08:43.293Z,1.00
2022-10-09T03:09:46.073Z,0.67
2022-10-09T03:10:49.032Z,0.00
2022-10-09T03:11:52.228Z,0.00
2022-10-09T03:12:55.252Z,0.86
2022-10-09T03:13:58.399Z,1.14
2022-10-09T03:15:01.430Z,0.43
2022-10-09T03:16:04.566Z,1.00
2022-10-09T03:17:07.994Z,0.67
2022-10-09T03:18:10.783Z,0.43
2022-10-09T03:19:13.869Z,0.67
2022-10-09T03:20:16.659Z,0.00
2022-10-09T03:21:19.708Z,1.00
2022-10-09T03:22:22.848Z,2.00
2022-10-09T03:23:25.748Z,0.43
2022-10-09T03:24:28.600Z,1.43
2022-10-09T03:25:31.569Z,2.00
2022-10-09T03:26:34.793Z,1.14
2022-10-09T03:27:38.106Z,0.86
2022-10-09T03:28:41.363Z,0.71
2022-10-09T03:29:44.524Z,0.00
2022-10-09T03:30:47.537Z,0.57
2022-10-09T03:31:53.097Z,1.00
2022-10-09T03:32:55.063Z,1.75
2022-10-09T03:33:58.121Z,2.00
2022-10-09T03:35:01.212Z,1.00
2022-10-09T03:36:04.284Z,0.00
2022-10-09T03:37:07.433Z,0.00
2022-10-09T03:38:10.371Z,0.43
2022-10-09T03:39:13.206Z,1.00
2022-10-09T03:40:15.850Z,1.00
2022-10-09T03:41:18.862Z,0.67
2022-10-09T03:42:21.662Z,0.43
2022-10-09T03:43:24.549Z,1.17
2022-10-09T03:44:27.269Z,2.14
2022-10-09T03:45:30.120Z,1.00
2022-10-09T03:46:32.935Z,1.43
2022-10-09T03:47:35.787Z,0.17
2022-10-09T03:48:38.912Z,0.50
2022-10-09T03:49:41.769Z,0.33
2022-10-09T03:50:44.490Z,0.67
2022-10-09T03:51:47.343Z,0.00
2022-10-09T03:52:50.630Z,0.43
2022-10-09T03:53:53.898Z,1.43
2022-10-09T03:54:56.655Z,1.14
2022-10-09T03:55:59.390Z,0.67
2022-10-09T03:57:02.492Z,1.57
2022-10-09T03:58:05.651Z,0.67
2022-10-09T03:59:08.772Z,0.00
2022-10-09T04:00:11.572Z,0.33
2022-10-09T04:01:14.449Z,0.57
2022-10-09T04:02:17.365Z,0.00
2022-10-09T04:03:20.331Z,0.43
2022-10-09T04:04:23.468Z,0.67
2022-10-09T04:05:26.395Z,0.00
2022-10-09T04:06:29.305Z,0.43
2022-10-09T04:07:32.153Z,0.67
2022-10-09T04:08:35.106Z,0.33
2022-10-09T04:09:38.041Z,1.00
2022-10-09T04:10:40.882Z,1.00
2022-10-09T04:11:43.683Z,0.00
2022-10-09T04:12:46.904Z,0.33
2022-10-09T04:13:50.134Z,1.00
2022-10-09T04:14:53.283Z,1.00
2022-10-09T04:15:56.074Z,0.71
2022-10-09T04:16:59.285Z,0.43
2022-10-09T04:18:02.355Z,1.17
2022-10-09T04:19:05.829Z,1.43
2022-10-09T04:20:09.029Z,1.00
2022-10-09T04:21:12.117Z,0.57
2022-10-09T04:22:14.889Z,0.86
2022-10-09T04:23:17.982Z,1.00
2022-10-09T04:24:20.791Z,0.83
2022-10-09T04:25:23.734Z,1.00
2022-10-09T04:26:26.464Z,0.67
2022-10-09T04:27:29.326Z,0.00
2022-10-09T04:28:32.243Z,0.00
2022-10-09T04:29:35.498Z,0.00
2022-10-09T04:30:38.750Z,0.00
2022-10-09T04:31:41.877Z,0.86
2022-10-09T04:32:45.000Z,2.00
2022-10-09T04:33:48.130Z,0.86
2022-10-09T04:34:51.235Z,0.00
2022-10-09T04:35:54.369Z,0.33
2022-10-09T04:36:57.444Z,0.57
2022-10-09T04:38:00.467Z,0.86
2022-10-09T04:39:03.332Z,0.00
2022-10-09T04:40:07.401Z,0.00
2022-10-09T04:41:10.372Z,0.50
2022-10-09T04:42:13.151Z,0.57
2022-10-09T04:43:15.899Z,0.00
2022-10-09T04:44:18.604Z,0.00
2022-10-09T04:45:21.451Z,0.33
2022-10-09T04:46:24.524Z,0.57
2022-10-09T04:47:27.395Z,0.67
2022-10-09T04:48:30.098Z,1.33
2022-10-09T04:49:32.938Z,0.00
2022-10-09T04:50:35.985Z,0.43
2022-10-09T04:51:39.095Z,1.00
2022-10-09T04:52:42.233Z,1.00
2022-10-09T04:53:45.403Z,0.50
2022-10-09T04:54:48.499Z,0.00
2022-10-09T04:55:51.300Z,0.00
2022-10-09T04:56:54.413Z,1.17
2022-10-09T04:57:57.469Z,2.00
2022-10-09T04:59:00.628Z,1.00
2022-10-09T05:00:03.792Z,0.57
2022-10-09T05:01:06.992Z,0.43
2022-10-09T05:02:10.238Z,1.43
2022-10-09T05:03:13.629Z,0.57
2022-10-09T05:04:16.624Z,0.43
2022-10-09T05:05:19.762Z,0.67
2022-10-09T05:06:22.583Z,0.33
2022-10-09T05:07:25.760Z,0.83
2022-10-09T05:08:28.575Z,1.00
2022-10-09T05:09:31.563Z,0.67
2022-10-09T05:10:37.393Z,0.86
2022-10-09T05:11:42.682Z,2.00
2022-10-09T05:12:44.676Z,0.50
2022-10-09T05:13:47.830Z,0.00
2022-10-09T05:14:51.062Z,0.43
2022-10-09T05:15:54.127Z,1.57
2022-10-09T05:17:14.772Z,1.00
2022-10-09T05:18:02.823Z,1.00
2022-10-09T05:19:05.963Z,1.00
2022-10-09T05:20:09.132Z,0.57
2022-10-09T05:21:12.261Z,0.00
2022-10-09T05:22:15.076Z,0.83
2022-10-09T05:23:18.150Z,2.33
2022-10-09T05:24:20.971Z,0.57
2022-10-09T05:25:23.800Z,0.00
2022-10-09T05:26:26.693Z,0.43
2022-10-09T05:27:29.593Z,1.00
2022-10-09T05:28:32.863Z,1.00
2022-10-09T05:29:35.885Z,1.86
2022-10-09T05:30:38.851Z,2.00
2022-10-09T05:31:43.738Z,0.33
2022-10-09T05:32:46.135Z,0.50
2022-10-09T05:33:49.450Z,0.71
2022-10-09T05:34:52.378Z,0.86
2022-10-09T05:35:55.284Z,1.43
2022-10-09T05:36:58.274Z,0.67
2022-10-09T05:38:01.070Z,2.00
2022-10-09T05:39:04.192Z,1.67
2022-10-09T05:40:06.948Z,0.57
2022-10-09T05:41:09.883Z,0.00
2022-10-09T05:42:12.600Z,0.83
2022-10-09T05:43:15.436Z,1.00
2022-10-09T05:44:18.402Z,0.86
2022-10-09T05:45:21.229Z,0.33
2022-10-09T05:46:23.926Z,0.67
2022-10-09T05:47:26.788Z,1.00
2022-10-09T05:48:29.530Z,0.57
2022-10-09T05:49:32.495Z,1.00
2022-10-09T05:50:35.337Z,2.14
2022-10-09T05:51:38.402Z,1.00
2022-10-09T05:52:41.397Z,0.57
2022-10-09T05:53:44.413Z,0.43
2022-10-09T05:54:47.635Z,1.00
2022-10-09T05:55:50.621Z,1.43
2022-10-09T05:56:53.627Z,1.00
2022-10-09T05:57:56.660Z,0.43
2022-10-09T05:58:59.611Z,1.00
2022-10-09T06:00:02.786Z,1.86
2022-10-09T06:01:06.027Z,1.29
2022-10-09T06:02:09.231Z,1.29
2022-10-09T06:03:12.393Z,1.43
2022-10-09T06:04:15.179Z,1.29
2022-10-09T06:05:18.058Z,0.50
2022-10-09T06:06:20.767Z,1.33
2022-10-09T06:07:23.601Z,0.83
2022-10-09T06:08:27.801Z,0.00
2022-10-09T06:09:30.561Z,0.17
2022-10-09T06:10:33.663Z,0.33
2022-10-09T06:11:37.768Z,1.00
2022-10-09T06:12:40.888Z,1.50
2022-10-09T06:13:43.961Z,1.67
2022-10-09T06:14:47.039Z,1.00
2022-10-09T06:15:50.590Z,1.43
2022-10-09T06:16:53.801Z,1.57
2022-10-09T06:17:57.012Z,0.86
2022-10-09T06:19:00.189Z,0.29
2022-10-09T06:20:03.356Z,0.00
2022-10-09T06:21:06.454Z,1.29
2022-10-09T06:22:09.603Z,2.67
2022-10-09T06:23:12.812Z,1.33
2022-10-09T06:24:15.748Z,0.57
2022-10-09T06:25:18.691Z,0.33
2022-10-09T06:26:21.422Z,1.17
2022-10-09T06:27:24.408Z,1.00
2022-10-09T06:28:27.364Z,1.67
2022-10-09T06:29:30.415Z,2.33
2022-10-09T06:30:36.340Z,1.00
2022-10-09T06:31:37.679Z,1.50
2022-10-09T06:32:40.851Z,1.43
2022-10-09T06:33:43.821Z,1.33
2022-10-09T06:34:46.748Z,1.67
2022-10-09T06:35:49.539Z,1.00
2022-10-09T06:36:52.363Z,1.33
2022-10-09T06:37:55.273Z,1.14
2022-10-09T06:38:58.172Z,0.00
2022-10-09T06:40:01.101Z,0.43
2022-10-09T06:41:03.907Z,1.00
2022-10-09T06:42:06.770Z,2.00
2022-10-09T06:43:09.582Z,1.00
2022-10-09T06:44:16.258Z,1.86
2022-10-09T06:45:24.791Z,3.00
2022-10-09T06:46:28.329Z,0.67
2022-10-09T06:47:31.185Z,4.00
2022-10-09T06:48:34.236Z,4.67
2022-10-09T06:49:37.423Z,4.00
2022-10-09T06:50:40.908Z,4.43
2022-10-09T06:51:44.198Z,3.71
2022-10-09T06:52:47.938Z,1.29
2022-10-09T06:53:51.473Z,1.50
2022-10-09T06:54:54.972Z,2.00
2022-10-09T06:55:58.536Z,2.71
2022-10-09T06:57:03.283Z,3.57
2022-10-09T06:58:06.973Z,3.50
2022-10-09T06:59:10.366Z,3.14
2022-10-09T07:00:13.817Z,2.00
2022-10-09T07:01:17.298Z,1.43
2022-10-09T07:02:20.647Z,1.57
2022-10-09T07:03:23.973Z,1.14
2022-10-09T07:04:27.190Z,2.00
2022-10-09T07:05:37.293Z,3.00
2022-10-09T07:06:42.581Z,1.50
2022-10-09T07:07:45.844Z,1.50
2022-10-09T07:08:49.225Z,3.00
2022-10-09T07:09:52.620Z,2.57
2022-10-09T07:10:56.225Z,1.17
2022-10-09T07:11:59.498Z,1.86
2022-10-09T07:13:03.092Z,2.14
2022-10-09T07:14:09.437Z,1.00
2022-10-09T07:15:13.644Z,0.50
2022-10-09T07:16:16.869Z,0.50
2022-10-09T07:17:20.033Z,1.43
2022-10-09T07:18:24.700Z,2.00
2022-10-09T07:19:27.494Z,2.57
2022-10-09T07:20:30.903Z,1.67
2022-10-09T07:21:34.182Z,1.43
2022-10-09T07:22:37.491Z,2.43
2022-10-09T07:23:40.738Z,2.67
2022-10-09T07:24:43.947Z,2.00
2022-10-09T07:25:47.211Z,1.29
2022-10-09T07:26:50.494Z,1.29
2022-10-09T07:27:53.954Z,2.57
2022-10-09T07:28:57.072Z,2.00
2022-10-09T07:30:00.549Z,2.00
2022-10-09T07:31:04.449Z,1.57
2022-10-09T07:32:10.529Z,2.00
2022-10-09T07:33:12.664Z,2.00
2022-10-09T07:34:17.539Z,2.57
2022-10-09T07:35:20.866Z,2.37
2022-10-09T07:36:23.941Z,2.43
2022-10-09T07:37:27.331Z,4.00
2022-10-09T07:38:30.716Z,5.50
2022-10-09T07:39:34.941Z,3.50
2022-10-09T07:40:38.312Z,2.86
2022-10-09T07:41:41.707Z,3.29
2022-10-09T07:42:45.006Z,2.57
2022-10-09T07:43:48.411Z,2.00
2022-10-09T07:44:51.955Z,1.57
2022-10-09T07:45:55.481Z,1.14
2022-10-09T07:46:58.633Z,2.00
2022-10-09T07:48:02.114Z,2.33
2022-10-09T07:49:05.312Z,1.43
2022-10-09T07:50:08.371Z,2.86
2022-10-09T07:51:11.763Z,3.14
2022-10-09T07:52:15.145Z,1.86
2022-10-09T07:53:18.439Z,1.43
2022-10-09T07:54:21.618Z,1.14
2022-10-09T07:55:25.119Z,1.57
2022-10-09T07:56:28.183Z,2.43
2022-10-09T07:57:32.494Z,2.50
2022-10-09T07:58:35.884Z,2.57
2022-10-09T07:59:39.271Z,2.00
2022-10-09T08:00:42.651Z,2.00
2022-10-09T08:01:46.004Z,3.00
2022-10-09T08:02:49.523Z,1.57
2022-10-09T08:03:53.021Z,2.00
2022-10-09T08:04:56.501Z,3.86
2022-10-09T08:05:59.896Z,3.14
2022-10-09T08:07:03.226Z,2.43
2022-10-09T08:08:06.666Z,2.57
2022-10-09T08:09:10.353Z,2.43
2022-10-09T08:10:15.902Z,2.50
2022-10-09T08:11:19.494Z,3.00
2022-10-09T08:12:22.712Z,4.43
2022-10-09T08:13:25.959Z,5.86
2022-10-09T08:14:29.346Z,6.14
2022-10-09T08:15:32.646Z,4.57
2022-10-09T08:16:36.119Z,3.29
2022-10-09T08:17:39.379Z,2.57
2022-10-09T08:18:42.550Z,3.14
2022-10-09T08:19:45.759Z,2.86
2022-10-09T08:20:49.154Z,3.00
2022-10-09T08:22:03.157Z,3.00
2022-10-09T08:23:07.352Z,2.62
2022-10-09T08:24:10.782Z,3.00
2022-10-09T08:25:14.372Z,4.50
2022-10-09T08:26:17.770Z,4.00
2022-10-09T08:27:21.252Z,3.43
2022-10-09T08:28:26.250Z,4.29
2022-10-09T08:29:29.760Z,3.50
2022-10-09T08:30:33.043Z,3.14
2022-10-09T08:31:36.153Z,4.00
2022-10-09T08:32:39.411Z,4.71
2022-10-09T08:33:42.891Z,4.86
2022-10-09T08:34:46.524Z,3.43
2022-10-09T08:35:50.392Z,2.57
2022-10-09T08:36:53.667Z,2.43
2022-10-09T08:37:57.053Z,3.86
2022-10-09T08:39:00.446Z,3.29
2022-10-09T08:40:03.728Z,2.71
2022-10-09T08:41:07.331Z,2.14
2022-10-09T08:42:10.809Z,2.50
2022-10-09T08:43:14.306Z,3.67
2022-10-09T08:44:17.477Z,4.00
2022-10-09T08:45:20.688Z,3.00
2022-10-09T08:46:23.987Z,2.33
2022-10-09T08:47:27.532Z,3.86
2022-10-09T08:48:30.933Z,3.57
2022-10-09T08:49:34.011Z,3.86
2022-10-09T08:50:37.209Z,4.33
2022-10-09T08:51:40.675Z,4.43
2022-10-09T08:52:47.844Z,5.43
2022-10-09T08:53:48.682Z,5.50
2022-10-09T08:54:53.374Z,6.29
2022-10-09T08:55:56.171Z,4.75
2022-10-09T08:57:01.512Z,3.57
2022-10-09T08:58:06.620Z,4.00
2022-10-09T08:59:09.830Z,3.00
2022-10-09T09:00:13.094Z,3.83
2022-10-09T09:01:16.402Z,4.14
2022-10-09T09:02:26.305Z,4.00
2022-10-09T09:03:29.698Z,4.50
2022-10-09T09:04:34.886Z,4.29
2022-10-09T09:05:37.801Z,4.00
2022-10-09T09:06:40.899Z,3.43
2022-10-09T09:07:44.378Z,4.43
2022-10-09T09:08:47.586Z,5.14
2022-10-09T09:09:50.737Z,5.00
2022-10-09T09:10:54.033Z,5.00
2022-10-09T09:11:57.332Z,6.71
2022-10-09T09:13:00.493Z,6.33
2022-10-09T09:14:03.992Z,5.43
2022-10-09T09:15:07.463Z,6.00
2022-10-09T09:16:11.179Z,6.00
2022-10-09T09:17:14.466Z,5.57
2022-10-09T09:18:17.521Z,5.29
2022-10-09T09:19:20.916Z,6.50
2022-10-09T09:20:24.105Z,5.14
2022-10-09T09:21:27.791Z,6.43
2022-10-09T09:22:30.971Z,7.29
2022-10-09T09:23:34.152Z,5.14
2022-10-09T09:24:37.641Z,6.00
2022-10-09T09:25:41.144Z,5.86
2022-10-09T09:26:48.410Z,5.86
2022-10-09T09:27:52.000Z,5.50
2022-10-09T09:28:55.241Z,5.14
2022-10-09T09:29:58.982Z,4.00
2022-10-09T09:31:02.785Z,4.00
2022-10-09T09:32:06.469Z,4.29
2022-10-09T09:33:09.989Z,6.00
2022-10-09T09:34:13.133Z,4.14
2022-10-09T09:35:16.727Z,4.86
2022-10-09T09:36:19.794Z,6.14
2022-10-09T09:37:23.083Z,5.86
2022-10-09T09:38:26.377Z,5.00
2022-10-09T09:40:42.244Z,3.12
2022-10-09T09:41:44.332Z,3.50
2022-10-09T09:42:48.252Z,3.57
2022-10-09T09:43:52.627Z,4.00
2022-10-09T09:44:56.327Z,4.57
2022-10-09T09:46:00.225Z,3.14
2022-10-09T09:47:03.831Z,4.00
2022-10-09T09:48:06.992Z,2.57
2022-10-09T09:49:10.727Z,1.67
2022-10-09T09:50:35.213Z,1.50
2022-10-09T09:51:33.649Z,1.50
2022-10-09T09:52:22.910Z,2.00
2022-10-09T09:53:26.204Z,2.00
2022-10-09T09:54:29.463Z,1.57
2022-10-09T09:55:32.687Z,2.43
2022-10-09T09:56:53.325Z,3.00
2022-10-09T09:57:40.550Z,2.87
2022-10-09T09:58:43.824Z,2.33
2022-10-09T09:59:53.146Z,3.33
2022-10-09T10:00:56.771Z,2.62
2022-10-09T10:02:00.156Z,1.00
2022-10-09T10:03:03.624Z,2.57
2022-10-09T10:04:06.903Z,4.00
2022-10-09T10:05:10.292Z,3.14
2022-10-09T10:06:13.881Z,2.43
2022-10-09T10:07:17.680Z,3.00
2022-10-09T10:08:21.061Z,4.14
2022-10-09T10:09:24.192Z,5.43
2022-10-09T10:10:27.764Z,6.00
2022-10-09T10:11:31.007Z,3.29
2022-10-09T10:12:35.436Z,1.86
2022-10-09T10:13:38.719Z,3.50
2022-10-09T10:14:42.012Z,2.57
2022-10-09T10:15:45.514Z,2.43
2022-10-09T10:16:48.891Z,3.29
2022-10-09T10:17:53.813Z,3.33
2022-10-09T10:18:57.191Z,4.12
2022-10-09T10:20:00.384Z,5.86
2022-10-09T10:21:03.765Z,5.00
2022-10-09T10:22:07.257Z,3.00
2022-10-09T10:23:10.744Z,3.43
2022-10-09T10:24:14.327Z,3.50
2022-10-09T10:25:18.014Z,3.86
2022-10-09T10:26:21.099Z,3.29
2022-10-09T10:27:24.787Z,3.14
2022-10-09T10:28:28.316Z,3.00
2022-10-09T10:29:31.868Z,3.25
2022-10-09T10:30:35.064Z,2.57
2022-10-09T10:31:41.455Z,2.00
2022-10-09T10:32:45.006Z,3.00
2022-10-09T10:33:48.374Z,3.71
2022-10-09T10:34:51.879Z,3.00
2022-10-09T10:35:57.381Z,2.43
2022-10-09T10:37:02.640Z,3.00
2022-10-09T10:38:05.184Z,3.00
2022-10-09T10:39:08.872Z,5.14
2022-10-09T10:40:12.185Z,5.86
2022-10-09T10:41:15.685Z,4.29
2022-10-09T10:42:20.469Z,5.37
2022-10-09T10:43:24.212Z,6.00
2022-10-09T10:44:27.585Z,3.25
2022-10-09T10:45:31.175Z,2.86
2022-10-09T10:46:34.703Z,3.43
2022-10-09T10:47:37.952Z,2.57
2022-10-09T10:48:41.311Z,1.43
2022-10-09T10:49:44.814Z,3.29
2022-10-09T10:50:48.325Z,4.14
2022-10-09T10:51:51.691Z,3.43
2022-10-09T10:52:55.609Z,2.57
2022-10-09T10:53:58.981Z,2.14
2022-10-09T10:55:09.312Z,2.57
2022-10-09T10:56:12.812Z,2.50
2022-10-09T10:57:16.103Z,3.57
2022-10-09T10:59:22.526Z,3.00
2022-10-09T11:00:25.951Z,3.33
2022-10-09T11:01:29.677Z,3.50
2022-10-09T11:02:34.483Z,2.57
2022-10-09T11:03:38.116Z,2.37
2022-10-09T11:04:41.764Z,4.00
2022-10-09T11:05:45.605Z,3.57
2022-10-09T11:06:49.137Z,4.86
2022-10-09T11:07:54.482Z,5.29
2022-10-09T11:08:57.243Z,3.00
2022-10-09T11:10:00.941Z,3.43
2022-10-09T11:11:04.844Z,3.14
2022-10-09T11:12:15.600Z,3.14
2022-10-09T11:13:15.062Z,4.75
2022-10-09T11:14:20.186Z,2.50
2022-10-09T11:15:22.797Z,2.50
2022-10-09T11:16:26.223Z,3.87
2022-10-09T11:17:29.865Z,3.71
2022-10-09T11:18:33.151Z,3.00
2022-10-09T11:19:36.435Z,3.14
2022-10-09T11:20:39.629Z,1.57
2022-10-09T11:21:43.008Z,1.43
2022-10-09T11:22:46.766Z,2.00
2022-10-09T11:23:50.293Z,2.37
2022-10-09T11:24:53.690Z,1.57
2022-10-09T11:25:56.884Z,2.71
2022-10-09T11:27:03.433Z,3.43
2022-10-09T11:28:05.042Z,3.50
2022-10-09T11:29:08.340Z,4.00
2022-10-09T11:30:11.733Z,4.67
2022-10-09T11:31:15.301Z,3.14
2022-10-09T11:32:18.512Z,2.00
2022-10-09T11:33:21.934Z,1.71
2022-10-09T11:34:24.984Z,3.00
2022-10-09T11:35:28.263Z,3.33
2022-10-09T11:36:31.345Z,3.14
2022-10-09T11:37:34.729Z,2.86
2022-10-09T11:38:37.919Z,4.00
2022-10-09T11:39:40.983Z,4.00
2022-10-09T11:40:44.067Z,4.33
2022-10-09T11:41:47.454Z,4.00
2022-10-09T11:42:50.543Z,4.50
2022-10-09T11:43:53.692Z,4.57
2022-10-09T11:44:57.411Z,4.29
2022-10-09T11:46:00.848Z,4.57
2022-10-09T11:47:06.502Z,2.43
2022-10-09T11:48:09.010Z,3.75
2022-10-09T11:49:12.392Z,4.86
2022-10-09T11:50:15.881Z,4.86
2022-10-09T11:51:19.371Z,4.00
2022-10-09T11:52:22.550Z,4.00
2022-10-09T11:53:26.176Z,4.00
2022-10-09T11:54:29.229Z,3.14
2022-10-09T11:55:32.503Z,3.00
2022-10-09T11:56:35.791Z,4.67
2022-10-09T11:57:39.070Z,4.57
2022-10-09T11:58:42.351Z,4.57
2022-10-09T11:59:45.849Z,3.57
2022-10-09T12:00:49.195Z,3.71
2022-10-09T12:01:52.331Z,4.57
2022-10-09T12:02:55.712Z,3.14
2022-10-09T12:04:00.622Z,3.14
2022-10-09T12:05:03.595Z,4.75
2022-10-09T12:06:06.729Z,6.71
2022-10-09T12:07:10.014Z,6.57
2022-10-09T12:08:16.799Z,5.43
2022-10-09T12:09:19.872Z,4.50
2022-10-09T12:10:23.092Z,3.50
2022-10-09T12:11:26.375Z,4.00
2022-10-09T12:12:29.445Z,5.14
2022-10-09T12:13:32.630Z,4.86
2022-10-09T12:14:35.917Z,5.57
2022-10-09T12:15:39.303Z,5.29
2022-10-09T12:16:42.675Z,5.43
2022-10-09T12:17:45.979Z,5.14
2022-10-09T12:18:49.065Z,6.57
2022-10-09T12:19:53.302Z,8.00
2022-10-09T12:20:57.158Z,8.00
2022-10-09T12:22:00.649Z,7.14
2022-10-09T12:24:08.139Z,6.00
2022-10-09T12:25:11.530Z,5.29
2022-10-09T12:26:14.726Z,5.14
2022-10-09T12:27:18.093Z,6.43
2022-10-09T12:28:21.349Z,6.43
2022-10-09T12:29:24.572Z,4.14
2022-10-09T12:30:27.889Z,3.00
2022-10-09T12:31:31.290Z,4.86
2022-10-09T12:32:34.622Z,4.43
2022-10-09T12:33:37.812Z,4.43
2022-10-09T12:34:45.534Z,4.71
2022-10-09T12:35:48.883Z,4.50
2022-10-09T12:36:52.054Z,3.29
2022-10-09T12:37:55.243Z,3.86
2022-10-09T12:38:58.730Z,4.67
2022-10-09T12:40:01.923Z,3.86
2022-10-09T12:41:05.364Z,4.57
2022-10-09T12:42:08.473Z,3.57
2022-10-09T12:43:11.589Z,4.71
2022-10-09T12:44:14.839Z,4.67
2022-10-09T12:45:18.037Z,4.43
2022-10-09T12:46:21.162Z,4.00
2022-10-09T12:47:24.289Z,3.00
2022-10-09T12:48:34.652Z,4.00
2022-10-09T12:49:38.027Z,4.62
2022-10-09T12:50:41.306Z,3.86
2022-10-09T12:51:44.391Z,4.00
2022-10-09T12:52:48.190Z,4.50
2022-10-09T12:53:51.446Z,5.00
2022-10-09T12:54:54.647Z,4.57
2022-10-09T12:55:57.847Z,5.29
2022-10-09T12:57:01.319Z,6.33
2022-10-09T12:58:04.603Z,5.00
2022-10-09T12:59:07.806Z,5.50
2022-10-09T13:00:10.871Z,4.71
2022-10-09T13:01:14.395Z,4.00
2022-10-09T13:02:17.903Z,4.14
2022-10-09T13:03:21.289Z,3.57
2022-10-09T13:04:24.385Z,4.57
2022-10-09T13:05:27.692Z,5.00
2022-10-09T13:06:30.909Z,6.00
2022-10-09T13:07:34.172Z,5.00
2022-10-09T13:08:37.480Z,5.00
2022-10-09T13:09:40.528Z,6.14
2022-10-09T13:10:43.961Z,6.57
2022-10-09T13:11:47.640Z,5.14
2022-10-09T13:12:51.720Z,5.00
2022-10-09T13:13:55.398Z,5.00
2022-10-09T13:14:58.893Z,4.71
2022-10-09T13:16:02.290Z,4.57
2022-10-09T13:17:05.586Z,4.17
2022-10-09T13:18:09.155Z,4.67
2022-10-09T13:19:12.842Z,5.00
2022-10-09T13:20:16.341Z,4.86
2022-10-09T13:21:19.618Z,5.14
2022-10-09T13:22:22.700Z,3.86
2022-10-09T13:23:26.187Z,5.43
2022-10-09T13:24:29.371Z,6.43
2022-10-09T13:25:32.868Z,9.00
2022-10-09T13:26:36.046Z,10.00
2022-10-09T13:27:39.219Z,5.71
2022-10-09T13:28:42.668Z,3.57
2022-10-09T13:29:46.207Z,4.00
2022-10-09T13:30:49.557Z,6.43
2022-10-09T13:31:52.872Z,7.43
2022-10-09T13:32:56.364Z,5.86
2022-10-09T13:33:59.732Z,3.29
2022-10-09T13:35:02.934Z,3.86
2022-10-09T13:36:06.326Z,4.71
2022-10-09T13:37:09.612Z,5.71
2022-10-09T13:38:13.092Z,6.00
2022-10-09T13:39:16.689Z,5.29
2022-10-09T13:40:20.070Z,5.00
2022-10-09T13:41:23.454Z,5.00
2022-10-09T13:42:26.854Z,5.57
2022-10-09T13:43:30.268Z,6.43
2022-10-09T13:44:33.508Z,6.33
2022-10-09T13:45:36.587Z,6.29
2022-10-09T13:46:39.779Z,5.71
2022-10-09T13:47:43.060Z,9.29
2022-10-09T13:48:49.451Z,7.43
2022-10-09T13:49:52.810Z,6.12
2022-10-09T13:50:56.293Z,5.86
2022-10-09T13:51:59.439Z,7.14
2022-10-09T13:53:02.848Z,6.33
2022-10-09T13:54:07.077Z,7.00
2022-10-09T13:55:11.188Z,6.57
2022-10-09T13:56:14.331Z,6.62
2022-10-09T13:57:17.537Z,7.00
2022-10-09T13:58:20.720Z,7.00
2022-10-09T13:59:23.791Z,5.29
2022-10-09T14:00:26.871Z,4.00
2022-10-09T14:01:29.990Z,4.86
2022-10-09T14:02:33.340Z,5.86
2022-10-09T14:03:36.371Z,6.71
2022-10-09T14:04:39.442Z,6.67
2022-10-09T14:05:42.682Z,4.33
2022-10-09T14:06:46.083Z,6.29
2022-10-09T14:07:49.255Z,9.29
2022-10-09T14:08:52.542Z,9.29
2022-10-09T14:09:55.526Z,7.71